Sandy Lake, Canada
Current Conditions -  °F | °C
As of 10:16 AM on Thursday 30 Oct 2014 (Local Time) from CZSJ Reporting Station
Light Snow Light Snow  
Wind Chill: 15°   Ceiling: 3800
Heat Index: 25°   Visibility: 7mi
Dew Point: 21°   Wind: 10mph
Humidity: 86%   Direction: 340°NNW
Pressure: 30.17"   Gusts: NA
Location:  53.03°N, 93.23°W
Report Text: CZSJ 301516Z AUTO 34009KT 7SM -SN SCT012 SCT018 BKN038 OVC055 M04/M06 A3017 RMK SLP236
Loading
Personal Weather Stations






























Interactive Weather Map
Tropical Storm Tracking
New forecast layout! Learn more

10-Day Weather Forecast

Advertisements
Track Severe Weather on mobile